sensor_id;sensor_type;location;lat;lon;timestamp;temperature;humidity
35027;DHT22;60696;51.426;6.934;2023-07-16T04:02:36;16.90;99.90
35027;DHT22;60696;51.426;6.934;2023-07-16T04:05:02;16.90;99.90
35027;DHT22;60696;51.426;6.934;2023-07-16T04:07:28;16.80;99.90
35027;DHT22;60696;51.426;6.934;2023-07-16T04:09:54;16.90;99.90
35027;DHT22;60696;51.426;6.934;2023-07-16T04:12:19;16.90;99.90
35027;DHT22;60696;51.426;6.934;2023-07-16T04:14:46;16.90;99.90
35027;DHT22;60696;51.426;6.934;2023-07-16T04:17:11;16.90;99.90
35027;DHT22;60696;51.426;6.934;2023-07-16T04:19:37;16.90;99.90
35027;DHT22;60696;51.426;6.934;2023-07-16T04:22:03;16.90;99.90
35027;DHT22;60696;51.426;6.934;2023-07-16T04:24:29;16.90;99.90
35027;DHT22;60696;51.426;6.934;2023-07-16T04:26:55;16.90;99.90
35027;DHT22;60696;51.426;6.934;2023-07-16T04:29:21;16.90;99.90
35027;DHT22;60696;51.426;6.934;2023-07-16T04:31:47;16.90;99.90
35027;DHT22;60696;51.426;6.934;2023-07-16T04:34:12;17.00;99.90
35027;DHT22;60696;51.426;6.934;2023-07-16T04:36:38;17.00;99.90
35027;DHT22;60696;51.426;6.934;2023-07-16T04:39:04;17.00;99.90
35027;DHT22;60696;51.426;6.934;2023-07-16T04:41:33;17.10;99.90
35027;DHT22;60696;51.426;6.934;2023-07-16T04:43:58;17.10;99.90
35027;DHT22;60696;51.426;6.934;2023-07-16T04:46:24;17.20;99.90
35027;DHT22;60696;51.426;6.934;2023-07-16T04:48:49;17.30;99.90
35027;DHT22;60696;51.426;6.934;2023-07-16T04:51:15;17.50;99.90
35027;DHT22;60696;51.426;6.934;2023-07-16T04:53:41;17.90;99.90
35027;DHT22;60696;51.426;6.934;2023-07-16T04:56:12;18.40;99.90
35027;DHT22;60696;51.426;6.934;2023-07-16T04:58:37;19.00;99.90
35027;DHT22;60696;51.426;6.934;2023-07-16T05:01:03;19.30;99.90
35027;DHT22;60696;51.426;6.934;2023-07-16T05:03:29;19.60;99.90
35027;DHT22;60696;51.426;6.934;2023-07-16T05:05:54;19.80;99.90
35027;DHT22;60696;51.426;6.934;2023-07-16T05:08:20;20.00;99.90
35027;DHT22;60696;51.426;6.934;2023-07-16T05:10:45;20.20;99.90
35027;DHT22;60696;51.426;6.934;2023-07-16T05:13:11;20.60;99.90
35027;DHT22;60696;51.426;6.934;2023-07-16T05:15:41;20.80;99.10
35027;DHT22;60696;51.426;6.934;2023-07-16T05:18:08;20.90;98.80
35027;DHT22;60696;51.426;6.934;2023-07-16T05:20:34;21.40;98.00
35027;DHT22;60696;51.426;6.934;2023-07-16T05:22:59;21.60;97.10
35027;DHT22;60696;51.426;6.934;2023-07-16T05:25:25;21.90;96.20
35027;DHT22;60696;51.426;6.934;2023-07-16T05:27:50;21.80;95.20
35027;DHT22;60696;51.426;6.934;2023-07-16T05:30:16;21.80;95.90
35027;DHT22;60696;51.426;6.934;2023-07-16T05:32:41;21.60;95.70
35027;DHT22;60696;51.426;6.934;2023-07-16T05:35:07;21.90;94.30
35027;DHT22;60696;51.426;6.934;2023-07-16T05:37:33;22.30;94.00
35027;DHT22;60696;51.426;6.934;2023-07-16T05:39:58;22.40;92.90
35027;DHT22;60696;51.426;6.934;2023-07-16T05:42:24;22.20;92.60
35027;DHT22;60696;51.426;6.934;2023-07-16T05:44:50;22.40;91.90
35027;DHT22;60696;51.426;6.934;2023-07-16T05:47:15;22.20;90.90
35027;DHT22;60696;51.426;6.934;2023-07-16T05:49:41;22.30;91.10
35027;DHT22;60696;51.426;6.934;2023-07-16T05:52:06;22.50;89.70
35027;DHT22;60696;51.426;6.934;2023-07-16T05:54:33;22.30;87.70
35027;DHT22;60696;51.426;6.934;2023-07-16T05:56:59;22.50;88.40
35027;DHT22;60696;51.426;6.934;2023-07-16T05:59:26;22.90;85.50
35027;DHT22;60696;51.426;6.934;2023-07-16T06:01:51;23.20;83.20
35027;DHT22;60696;51.426;6.934;2023-07-16T06:04:17;23.70;81.50
35027;DHT22;60696;51.426;6.934;2023-07-16T06:06:42;24.00;78.90
35027;DHT22;60696;51.426;6.934;2023-07-16T06:09:08;24.20;77.00
35027;DHT22;60696;51.426;6.934;2023-07-16T06:11:34;24.30;76.00
35027;DHT22;60696;51.426;6.934;2023-07-16T06:13:59;23.70;73.50
35027;DHT22;60696;51.426;6.934;2023-07-16T06:16:25;23.50;75.60
35027;DHT22;60696;51.426;6.934;2023-07-16T06:18:51;23.60;75.10
35027;DHT22;60696;51.426;6.934;2023-07-16T06:21:16;23.50;74.80
35027;DHT22;60696;51.426;6.934;2023-07-16T06:23:42;23.90;74.50
35027;DHT22;60696;51.426;6.934;2023-07-16T06:26:08;23.80;73.70
35027;DHT22;60696;51.426;6.934;2023-07-16T06:28:36;24.00;71.10
35027;DHT22;60696;51.426;6.934;2023-07-16T06:31:07;24.60;70.00
35027;DHT22;60696;51.426;6.934;2023-07-16T06:33:33;24.40;68.80
35027;DHT22;60696;51.426;6.934;2023-07-16T06:35:59;24.20;69.40
35027;DHT22;60696;51.426;6.934;2023-07-16T06:38:24;24.00;68.50
35027;DHT22;60696;51.426;6.934;2023-07-16T06:40:51;23.90;69.80
35027;DHT22;60696;51.426;6.934;2023-07-16T06:43:17;24.20;68.70
35027;DHT22;60696;51.426;6.934;2023-07-16T06:45:43;24.70;67.30
35027;DHT22;60696;51.426;6.934;2023-07-16T06:48:09;24.90;66.10
35027;DHT22;60696;51.426;6.934;2023-07-16T06:50:34;24.70;64.90
35027;DHT22;60696;51.426;6.934;2023-07-16T06:53:00;24.50;63.50
35027;DHT22;60696;51.426;6.934;2023-07-16T06:55:26;24.40;63.60
35027;DHT22;60696;51.426;6.934;2023-07-16T06:57:54;23.80;66.50
35027;DHT22;60696;51.426;6.934;2023-07-16T07:00:20;24.20;65.10
35027;DHT22;60696;51.426;6.934;2023-07-16T07:02:45;24.80;65.40
35027;DHT22;60696;51.426;6.934;2023-07-16T07:05:11;25.30;62.40
35027;DHT22;60696;51.426;6.934;2023-07-16T07:07:37;25.20;59.30
35027;DHT22;60696;51.426;6.934;2023-07-16T07:10:02;25.20;61.90
35027;DHT22;60696;51.426;6.934;2023-07-16T07:12:28;25.60;60.80
35027;DHT22;60696;51.426;6.934;2023-07-16T07:14:54;26.20;58.50
35027;DHT22;60696;51.426;6.934;2023-07-16T07:17:19;26.50;57.70
35027;DHT22;60696;51.426;6.934;2023-07-16T07:19:45;26.20;57.90
35027;DHT22;60696;51.426;6.934;2023-07-16T07:22:10;26.80;57.60
35027;DHT22;60696;51.426;6.934;2023-07-16T07:24:36;26.70;52.50
35027;DHT22;60696;51.426;6.934;2023-07-16T07:27:02;26.40;55.50
35027;DHT22;60696;51.426;6.934;2023-07-16T07:29:27;26.40;55.80
35027;DHT22;60696;51.426;6.934;2023-07-16T07:31:53;26.90;54.70
35027;DHT22;60696;51.426;6.934;2023-07-16T07:34:19;26.70;55.00
35027;DHT22;60696;51.426;6.934;2023-07-16T07:36:45;26.70;54.90
35027;DHT22;60696;51.426;6.934;2023-07-16T07:39:11;26.80;54.20
35027;DHT22;60696;51.426;6.934;2023-07-16T07:41:38;27.10;53.60
35027;DHT22;60696;51.426;6.934;2023-07-16T07:44:04;27.30;54.60
35027;DHT22;60696;51.426;6.934;2023-07-16T07:46:30;28.00;51.40
35027;DHT22;60696;51.426;6.934;2023-07-16T07:48:58;27.60;50.80
35027;DHT22;60696;51.426;6.934;2023-07-16T07:51:24;27.60;51.90
35027;DHT22;60696;51.426;6.934;2023-07-16T07:53:49;27.60;52.90
35027;DHT22;60696;51.426;6.934;2023-07-16T07:56:15;27.50;51.30
35027;DHT22;60696;51.426;6.934;2023-07-16T07:58:40;28.10;51.40
35027;DHT22;60696;51.426;6.934;2023-07-16T08:01:07;28.70;51.30
35027;DHT22;60696;51.426;6.934;2023-07-16T08:03:33;28.80;50.20
35027;DHT22;60696;51.426;6.934;2023-07-16T08:05:59;29.10;48.70
35027;DHT22;60696;51.426;6.934;2023-07-16T08:08:24;28.50;48.00
35027;DHT22;60696;51.426;6.934;2023-07-16T08:10:50;27.80;49.30
35027;DHT22;60696;51.426;6.934;2023-07-16T08:13:15;27.90;48.70
35027;DHT22;60696;51.426;6.934;2023-07-16T08:15:41;29.00;51.70
35027;DHT22;60696;51.426;6.934;2023-07-16T08:18:06;28.70;45.60
35027;DHT22;60696;51.426;6.934;2023-07-16T08:20:32;28.40;47.90
35027;DHT22;60696;51.426;6.934;2023-07-16T08:22:58;28.10;48.90
35027;DHT22;60696;51.426;6.934;2023-07-16T08:25:23;28.20;48.60
35027;DHT22;60696;51.426;6.934;2023-07-16T08:27:49;28.50;46.90
35027;DHT22;60696;51.426;6.934;2023-07-16T08:30:15;29.50;48.50
35027;DHT22;60696;51.426;6.934;2023-07-16T08:32:40;29.20;46.40
35027;DHT22;60696;51.426;6.934;2023-07-16T08:35:06;29.10;45.10
35027;DHT22;60696;51.426;6.934;2023-07-16T08:37:32;28.60;46.40
35027;DHT22;60696;51.426;6.934;2023-07-16T08:39:57;28.30;47.00
35027;DHT22;60696;51.426;6.934;2023-07-16T08:42:23;28.50;46.80
35027;DHT22;60696;51.426;6.934;2023-07-16T08:44:49;28.50;45.20
35027;DHT22;60696;51.426;6.934;2023-07-16T08:47:18;28.40;48.20
35027;DHT22;60696;51.426;6.934;2023-07-16T08:49:54;28.40;46.70
35027;DHT22;60696;51.426;6.934;2023-07-16T08:52:20;26.50;46.00
35027;DHT22;60696;51.426;6.934;2023-07-16T08:54:46;26.60;49.20
35027;DHT22;60696;51.426;6.934;2023-07-16T08:57:13;26.80;51.00
35027;DHT22;60696;51.426;6.934;2023-07-16T08:59:39;27.30;49.20
35027;DHT22;60696;51.426;6.934;2023-07-16T09:02:05;27.50;47.90
35027;DHT22;60696;51.426;6.934;2023-07-16T09:04:32;27.20;46.30
35027;DHT22;60696;51.426;6.934;2023-07-16T09:06:58;27.20;49.50
35027;DHT22;60696;51.426;6.934;2023-07-16T09:09:23;27.00;48.30
35027;DHT22;60696;51.426;6.934;2023-07-16T09:11:49;26.70;47.70
35027;DHT22;60696;51.426;6.934;2023-07-16T09:14:18;26.90;50.90
35027;DHT22;60696;51.426;6.934;2023-07-16T09:16:50;28.00;48.50
35027;DHT22;60696;51.426;6.934;2023-07-16T09:19:17;28.20;46.50
35027;DHT22;60696;51.426;6.934;2023-07-16T09:21:50;28.30;47.70
35027;DHT22;60696;51.426;6.934;2023-07-16T09:24:17;28.20;48.30
35027;DHT22;60696;51.426;6.934;2023-07-16T09:26:51;27.50;47.40
35027;DHT22;60696;51.426;6.934;2023-07-16T09:29:17;27.30;47.10
35027;DHT22;60696;51.426;6.934;2023-07-16T09:32:03;27.00;48.00
35027;DHT22;60696;51.426;6.934;2023-07-16T09:34:31;25.70;49.50
35027;DHT22;60696;51.426;6.934;2023-07-16T09:36:57;25.90;50.40
35027;DHT22;60696;51.426;6.934;2023-07-16T09:39:25;26.00;51.60
35027;DHT22;60696;51.426;6.934;2023-07-16T09:41:51;26.20;53.00
35027;DHT22;60696;51.426;6.934;2023-07-16T09:44:17;26.00;51.80
35027;DHT22;60696;51.426;6.934;2023-07-16T09:46:45;25.70;52.10
35027;DHT22;60696;51.426;6.934;2023-07-16T09:49:11;25.20;52.20
35027;DHT22;60696;51.426;6.934;2023-07-16T09:51:37;25.10;50.50
35027;DHT22;60696;51.426;6.934;2023-07-16T09:54:04;25.00;54.90
35027;DHT22;60696;51.426;6.934;2023-07-16T09:56:38;25.30;55.30
35027;DHT22;60696;51.426;6.934;2023-07-16T09:59:13;25.00;51.80
35027;DHT22;60696;51.426;6.934;2023-07-16T10:01:40;24.70;52.30
35027;DHT22;60696;51.426;6.934;2023-07-16T10:04:16;24.10;53.80
35027;DHT22;60696;51.426;6.934;2023-07-16T10:06:52;24.00;54.90
35027;DHT22;60696;51.426;6.934;2023-07-16T10:09:38;24.20;53.70
35027;DHT22;60696;51.426;6.934;2023-07-16T10:14:46;24.00;54.80
35027;DHT22;60696;51.426;6.934;2023-07-16T10:17:25;24.30;57.80
35027;DHT22;60696;51.426;6.934;2023-07-16T10:22:17;24.00;55.30
35027;DHT22;60696;51.426;6.934;2023-07-16T10:24:43;24.10;56.00
35027;DHT22;60696;51.426;6.934;2023-07-16T10:27:09;24.20;55.20
35027;DHT22;60696;51.426;6.934;2023-07-16T10:29:38;24.40;55.10
35027;DHT22;60696;51.426;6.934;2023-07-16T10:32:05;24.20;54.40
35027;DHT22;60696;51.426;6.934;2023-07-16T10:34:35;24.10;57.00
35027;DHT22;60696;51.426;6.934;2023-07-16T10:37:00;24.60;54.90
35027;DHT22;60696;51.426;6.934;2023-07-16T10:39:29;24.80;57.40
35027;DHT22;60696;51.426;6.934;2023-07-16T10:41:56;24.40;53.30
35027;DHT22;60696;51.426;6.934;2023-07-16T10:44:23;24.00;56.00
35027;DHT22;60696;51.426;6.934;2023-07-16T10:46:48;24.60;59.30
35027;DHT22;60696;51.426;6.934;2023-07-16T10:49:14;25.10;56.00
35027;DHT22;60696;51.426;6.934;2023-07-16T10:51:39;24.70;54.30
35027;DHT22;60696;51.426;6.934;2023-07-16T10:54:05;24.50;56.40
35027;DHT22;60696;51.426;6.934;2023-07-16T10:56:35;24.40;54.70
35027;DHT22;60696;51.426;6.934;2023-07-16T10:59:02;24.10;55.20
35027;DHT22;60696;51.426;6.934;2023-07-16T11:01:33;24.40;58.70
35027;DHT22;60696;51.426;6.934;2023-07-16T11:04:02;24.40;53.40
35027;DHT22;60696;51.426;6.934;2023-07-16T11:06:33;24.30;55.90
35027;DHT22;60696;51.426;6.934;2023-07-16T11:09:11;24.10;54.60
35027;DHT22;60696;51.426;6.934;2023-07-16T11:11:36;24.00;57.50
35027;DHT22;60696;51.426;6.934;2023-07-16T11:14:06;23.90;55.20
35027;DHT22;60696;51.426;6.934;2023-07-16T11:16:36;23.50;55.50
35027;DHT22;60696;51.426;6.934;2023-07-16T11:19:05;23.40;58.40
35027;DHT22;60696;51.426;6.934;2023-07-16T11:21:33;23.50;55.90
35027;DHT22;60696;51.426;6.934;2023-07-16T11:24:14;23.40;56.40
35027;DHT22;60696;51.426;6.934;2023-07-16T11:26:50;23.20;57.00
35027;DHT22;60696;51.426;6.934;2023-07-16T11:29:15;23.10;57.80
35027;DHT22;60696;51.426;6.934;2023-07-16T11:31:41;23.10;58.30
35027;DHT22;60696;51.426;6.934;2023-07-16T11:34:07;23.10;57.40
35027;DHT22;60696;51.426;6.934;2023-07-16T11:36:33;23.10;58.50
35027;DHT22;60696;51.426;6.934;2023-07-16T11:38:59;23.20;60.30
35027;DHT22;60696;51.426;6.934;2023-07-16T11:41:28;23.30;58.60
35027;DHT22;60696;51.426;6.934;2023-07-16T11:43:53;23.30;58.70
35027;DHT22;60696;51.426;6.934;2023-07-16T11:46:19;23.30;59.00
35027;DHT22;60696;51.426;6.934;2023-07-16T11:48:45;22.90;57.00
35027;DHT22;60696;51.426;6.934;2023-07-16T11:51:10;22.90;57.30
35027;DHT22;60696;51.426;6.934;2023-07-16T11:53:36;22.80;58.60
35027;DHT22;60696;51.426;6.934;2023-07-16T11:56:01;22.90;59.90
35027;DHT22;60696;51.426;6.934;2023-07-16T11:58:27;22.70;58.40
35027;DHT22;60696;51.426;6.934;2023-07-16T12:00:53;22.60;58.90
35027;DHT22;60696;51.426;6.934;2023-07-16T12:03:19;22.90;60.50
35027;DHT22;60696;51.426;6.934;2023-07-16T12:05:44;23.10;58.80
35027;DHT22;60696;51.426;6.934;2023-07-16T12:08:10;23.40;58.40
35027;DHT22;60696;51.426;6.934;2023-07-16T12:10:40;23.40;55.70
35027;DHT22;60696;51.426;6.934;2023-07-16T12:13:05;23.30;57.00
35027;DHT22;60696;51.426;6.934;2023-07-16T12:15:31;23.30;58.00
35027;DHT22;60696;51.426;6.934;2023-07-16T12:17:57;23.40;58.60
35027;DHT22;60696;51.426;6.934;2023-07-16T12:20:26;23.20;58.40
35027;DHT22;60696;51.426;6.934;2023-07-16T12:22:51;23.30;56.70
35027;DHT22;60696;51.426;6.934;2023-07-16T12:25:18;23.30;58.60
35027;DHT22;60696;51.426;6.934;2023-07-16T12:27:45;23.30;58.30
35027;DHT22;60696;51.426;6.934;2023-07-16T12:30:10;23.30;58.00
35027;DHT22;60696;51.426;6.934;2023-07-16T12:32:36;23.30;58.30
35027;DHT22;60696;51.426;6.934;2023-07-16T12:35:02;23.10;58.90
35027;DHT22;60696;51.426;6.934;2023-07-16T12:37:29;23.10;59.80
35027;DHT22;60696;51.426;6.934;2023-07-16T12:39:55;23.30;62.50
35027;DHT22;60696;51.426;6.934;2023-07-16T12:42:20;23.60;60.20
35027;DHT22;60696;51.426;6.934;2023-07-16T12:44:46;23.50;58.10
35027;DHT22;60696;51.426;6.934;2023-07-16T12:47:12;23.30;57.60
35027;DHT22;60696;51.426;6.934;2023-07-16T12:49:37;23.00;57.10
35027;DHT22;60696;51.426;6.934;2023-07-16T12:52:03;23.00;60.90
35027;DHT22;60696;51.426;6.934;2023-07-16T12:54:29;23.00;58.60
35027;DHT22;60696;51.426;6.934;2023-07-16T12:56:55;23.20;59.10
35027;DHT22;60696;51.426;6.934;2023-07-16T12:59:20;23.30;59.60
35027;DHT22;60696;51.426;6.934;2023-07-16T13:01:46;23.40;58.40
35027;DHT22;60696;51.426;6.934;2023-07-16T13:04:12;23.40;58.20
35027;DHT22;60696;51.426;6.934;2023-07-16T13:06:37;23.50;58.00
35027;DHT22;60696;51.426;6.934;2023-07-16T13:09:03;23.50;57.60
35027;DHT22;60696;51.426;6.934;2023-07-16T13:11:30;23.40;56.60
35027;DHT22;60696;51.426;6.934;2023-07-16T13:13:57;23.70;58.60
35027;DHT22;60696;51.426;6.934;2023-07-16T13:16:23;23.80;58.50
35027;DHT22;60696;51.426;6.934;2023-07-16T13:18:48;24.00;61.20
35027;DHT22;60696;51.426;6.934;2023-07-16T13:21:14;24.30;60.20
35027;DHT22;60696;51.426;6.934;2023-07-16T13:23:39;24.00;57.70
35027;DHT22;60696;51.426;6.934;2023-07-16T13:26:05;23.80;57.10
35027;DHT22;60696;51.426;6.934;2023-07-16T13:28:31;23.70;56.40
35027;DHT22;60696;51.426;6.934;2023-07-16T13:30:57;23.50;56.90
35027;DHT22;60696;51.426;6.934;2023-07-16T13:33:22;23.50;58.30
35027;DHT22;60696;51.426;6.934;2023-07-16T13:35:48;23.70;58.00
35027;DHT22;60696;51.426;6.934;2023-07-16T13:38:14;23.80;57.00
35027;DHT22;60696;51.426;6.934;2023-07-16T13:40:40;23.90;57.90
35027;DHT22;60696;51.426;6.934;2023-07-16T13:43:05;23.80;57.60
35027;DHT22;60696;51.426;6.934;2023-07-16T13:45:31;23.90;60.60
35027;DHT22;60696;51.426;6.934;2023-07-16T13:47:58;24.00;58.90
35027;DHT22;60696;51.426;6.934;2023-07-16T13:50:24;24.10;58.50
35027;DHT22;60696;51.426;6.934;2023-07-16T13:52:49;24.00;58.20
35027;DHT22;60696;51.426;6.934;2023-07-16T13:55:15;24.10;59.10
35027;DHT22;60696;51.426;6.934;2023-07-16T13:57:41;24.00;59.20
35027;DHT22;60696;51.426;6.934;2023-07-16T14:00:08;24.10;60.80
35027;DHT22;60696;51.426;6.934;2023-07-16T14:02:36;24.20;60.30
35027;DHT22;60696;51.426;6.934;2023-07-16T14:05:01;24.30;61.10
35027;DHT22;60696;51.426;6.934;2023-07-16T14:07:27;24.60;61.50
35027;DHT22;60696;51.426;6.934;2023-07-16T14:09:53;24.60;58.10
35027;DHT22;60696;51.426;6.934;2023-07-16T14:12:19;24.50;58.30
35027;DHT22;60696;51.426;6.934;2023-07-16T14:14:45;24.40;56.90
35027;DHT22;60696;51.426;6.934;2023-07-16T14:17:10;24.10;54.50
35027;DHT22;60696;51.426;6.934;2023-07-16T14:19:36;24.20;56.80
35027;DHT22;60696;51.426;6.934;2023-07-16T14:22:01;24.40;58.80
35027;DHT22;60696;51.426;6.934;2023-07-16T14:24:27;24.50;56.70
35027;DHT22;60696;51.426;6.934;2023-07-16T14:26:53;24.50;56.50
35027;DHT22;60696;51.426;6.934;2023-07-16T14:29:18;24.20;56.30
35027;DHT22;60696;51.426;6.934;2023-07-16T14:31:44;24.00;57.10
35027;DHT22;60696;51.426;6.934;2023-07-16T14:34:10;23.80;56.70
35027;DHT22;60696;51.426;6.934;2023-07-16T14:36:35;23.70;57.10
35027;DHT22;60696;51.426;6.934;2023-07-16T14:39:01;23.80;57.10
35027;DHT22;60696;51.426;6.934;2023-07-16T14:41:26;24.00;58.70
35027;DHT22;60696;51.426;6.934;2023-07-16T14:43:52;24.30;59.10
35027;DHT22;60696;51.426;6.934;2023-07-16T14:46:18;24.50;57.30
35027;DHT22;60696;51.426;6.934;2023-07-16T14:48:44;24.60;53.70
35027;DHT22;60696;51.426;6.934;2023-07-16T14:51:10;24.50;55.40
35027;DHT22;60696;51.426;6.934;2023-07-16T14:53:37;24.40;54.40
35027;DHT22;60696;51.426;6.934;2023-07-16T14:56:03;24.30;53.00
35027;DHT22;60696;51.426;6.934;2023-07-16T14:58:31;24.20;54.20
35027;DHT22;60696;51.426;6.934;2023-07-16T15:00:59;24.10;55.10
35027;DHT22;60696;51.426;6.934;2023-07-16T15:03:27;24.20;56.80
35027;DHT22;60696;51.426;6.934;2023-07-16T15:05:57;24.20;55.10
35027;DHT22;60696;51.426;6.934;2023-07-16T15:08:23;24.20;53.30
35027;DHT22;60696;51.426;6.934;2023-07-16T15:10:49;24.10;55.80
35027;DHT22;60696;51.426;6.934;2023-07-16T15:13:14;24.10;54.80
35027;DHT22;60696;51.426;6.934;2023-07-16T15:15:40;24.00;53.60
35027;DHT22;60696;51.426;6.934;2023-07-16T15:18:06;23.90;55.50
35027;DHT22;60696;51.426;6.934;2023-07-16T15:20:31;23.70;54.20
35027;DHT22;60696;51.426;6.934;2023-07-16T15:22:57;23.70;55.60
35027;DHT22;60696;51.426;6.934;2023-07-16T15:25:23;23.70;56.00
35027;DHT22;60696;51.426;6.934;2023-07-16T15:27:48;23.60;54.60
35027;DHT22;60696;51.426;6.934;2023-07-16T15:30:14;23.40;55.70
35027;DHT22;60696;51.426;6.934;2023-07-16T15:32:41;23.30;55.60
35027;DHT22;60696;51.426;6.934;2023-07-16T15:35:07;23.40;56.30
35027;DHT22;60696;51.426;6.934;2023-07-16T15:37:33;23.50;55.70
35027;DHT22;60696;51.426;6.934;2023-07-16T15:39:59;23.70;56.40
35027;DHT22;60696;51.426;6.934;2023-07-16T15:42:24;23.80;55.40
35027;DHT22;60696;51.426;6.934;2023-07-16T15:44:51;23.80;55.00
35027;DHT22;60696;51.426;6.934;2023-07-16T15:47:17;23.80;54.70
35027;DHT22;60696;51.426;6.934;2023-07-16T15:49:42;23.90;56.30
35027;DHT22;60696;51.426;6.934;2023-07-16T15:52:08;24.00;57.70
35027;DHT22;60696;51.426;6.934;2023-07-16T15:54:33;23.90;55.70
35027;DHT22;60696;51.426;6.934;2023-07-16T15:57:04;23.80;57.70
35027;DHT22;60696;51.426;6.934;2023-07-16T15:59:30;23.70;56.20
35027;DHT22;60696;51.426;6.934;2023-07-16T16:01:56;23.60;57.00
35027;DHT22;60696;51.426;6.934;2023-07-16T16:04:22;23.50;56.10
35027;DHT22;60696;51.426;6.934;2023-07-16T16:06:48;23.40;56.50
35027;DHT22;60696;51.426;6.934;2023-07-16T16:09:14;23.30;55.00
35027;DHT22;60696;51.426;6.934;2023-07-16T16:11:39;23.30;57.10
35027;DHT22;60696;51.426;6.934;2023-07-16T16:14:05;23.30;56.50
35027;DHT22;60696;51.426;6.934;2023-07-16T16:16:34;23.20;55.10
35027;DHT22;60696;51.426;6.934;2023-07-16T16:19:00;23.10;54.40
35027;DHT22;60696;51.426;6.934;2023-07-16T16:21:28;23.10;56.60
35027;DHT22;60696;51.426;6.934;2023-07-16T16:23:53;23.00;55.60
35027;DHT22;60696;51.426;6.934;2023-07-16T16:26:19;22.90;56.30
35027;DHT22;60696;51.426;6.934;2023-07-16T16:28:46;22.90;56.10
35027;DHT22;60696;51.426;6.934;2023-07-16T16:31:11;22.90;58.50
35027;DHT22;60696;51.426;6.934;2023-07-16T16:33:37;22.90;58.40
35027;DHT22;60696;51.426;6.934;2023-07-16T16:36:09;22.80;57.70
35027;DHT22;60696;51.426;6.934;2023-07-16T16:38:35;22.60;58.40
35027;DHT22;60696;51.426;6.934;2023-07-16T16:41:04;22.60;58.70
35027;DHT22;60696;51.426;6.934;2023-07-16T16:43:34;22.70;59.40
35027;DHT22;60696;51.426;6.934;2023-07-16T16:46:00;22.60;57.80
35027;DHT22;60696;51.426;6.934;2023-07-16T16:48:26;22.70;58.40
35027;DHT22;60696;51.426;6.934;2023-07-16T16:50:56;22.70;57.80
35027;DHT22;60696;51.426;6.934;2023-07-16T16:53:24;22.70;57.60
35027;DHT22;60696;51.426;6.934;2023-07-16T16:55:50;22.80;58.90
35027;DHT22;60696;51.426;6.934;2023-07-16T16:58:15;22.70;57.60
35027;DHT22;60696;51.426;6.934;2023-07-16T17:00:41;22.80;59.80
35027;DHT22;60696;51.426;6.934;2023-07-16T17:03:07;22.90;58.00
35027;DHT22;60696;51.426;6.934;2023-07-16T17:05:32;22.90;58.80
35027;DHT22;60696;51.426;6.934;2023-07-16T17:07:59;23.00;58.50
35027;DHT22;60696;51.426;6.934;2023-07-16T17:10:27;22.90;59.50
35027;DHT22;60696;51.426;6.934;2023-07-16T17:12:54;22.80;57.50
35027;DHT22;60696;51.426;6.934;2023-07-16T17:15:19;22.80;57.70
35027;DHT22;60696;51.426;6.934;2023-07-16T17:17:45;22.80;58.70
35027;DHT22;60696;51.426;6.934;2023-07-16T17:20:11;22.70;57.00
35027;DHT22;60696;51.426;6.934;2023-07-16T17:22:37;22.60;57.00
35027;DHT22;60696;51.426;6.934;2023-07-16T17:25:04;22.70;57.90
35027;DHT22;60696;51.426;6.934;2023-07-16T17:27:35;22.60;57.80
35027;DHT22;60696;51.426;6.934;2023-07-16T17:30:01;22.50;56.50
35027;DHT22;60696;51.426;6.934;2023-07-16T17:32:26;22.50;56.80
35027;DHT22;60696;51.426;6.934;2023-07-16T17:34:52;22.50;56.90
35027;DHT22;60696;51.426;6.934;2023-07-16T17:37:18;22.50;58.60
35027;DHT22;60696;51.426;6.934;2023-07-16T17:39:44;22.50;57.10
35027;DHT22;60696;51.426;6.934;2023-07-16T17:42:10;22.60;58.60
35027;DHT22;60696;51.426;6.934;2023-07-16T17:44:36;22.70;58.50
35027;DHT22;60696;51.426;6.934;2023-07-16T17:47:03;22.70;56.80
35027;DHT22;60696;51.426;6.934;2023-07-16T17:49:28;22.70;58.30
35027;DHT22;60696;51.426;6.934;2023-07-16T17:51:54;22.60;58.20
35027;DHT22;60696;51.426;6.934;2023-07-16T17:54:21;22.60;58.50
35027;DHT22;60696;51.426;6.934;2023-07-16T17:56:47;22.70;60.20
35027;DHT22;60696;51.426;6.934;2023-07-16T17:59:13;22.70;59.00
35027;DHT22;60696;51.426;6.934;2023-07-16T18:01:38;22.60;58.00
35027;DHT22;60696;51.426;6.934;2023-07-16T18:04:04;22.70;59.20
35027;DHT22;60696;51.426;6.934;2023-07-16T18:06:30;22.60;58.50
35027;DHT22;60696;51.426;6.934;2023-07-16T18:08:56;22.60;59.10
35027;DHT22;60696;51.426;6.934;2023-07-16T18:11:22;22.60;59.70
35027;DHT22;60696;51.426;6.934;2023-07-16T18:13:48;22.50;58.90
35027;DHT22;60696;51.426;6.934;2023-07-16T18:16:13;22.50;59.10
35027;DHT22;60696;51.426;6.934;2023-07-16T18:18:39;22.40;58.40
35027;DHT22;60696;51.426;6.934;2023-07-16T18:21:05;22.40;59.20
35027;DHT22;60696;51.426;6.934;2023-07-16T18:23:30;22.40;59.00
35027;DHT22;60696;51.426;6.934;2023-07-16T18:25:57;22.40;60.10
35027;DHT22;60696;51.426;6.934;2023-07-16T18:28:22;22.40;59.80
35027;DHT22;60696;51.426;6.934;2023-07-16T18:30:49;22.30;59.10
35027;DHT22;60696;51.426;6.934;2023-07-16T18:33:17;22.30;60.20
35027;DHT22;60696;51.426;6.934;2023-07-16T18:35:43;22.20;59.10
35027;DHT22;60696;51.426;6.934;2023-07-16T18:38:11;22.30;60.40
35027;DHT22;60696;51.426;6.934;2023-07-16T18:40:36;22.20;60.30
35027;DHT22;60696;51.426;6.934;2023-07-16T18:43:02;22.20;60.80
35027;DHT22;60696;51.426;6.934;2023-07-16T18:45:29;22.10;59.90
35027;DHT22;60696;51.426;6.934;2023-07-16T18:47:55;22.10;61.50
35027;DHT22;60696;51.426;6.934;2023-07-16T18:50:21;22.10;61.30
35027;DHT22;60696;51.426;6.934;2023-07-16T18:52:46;22.10;61.60
35027;DHT22;60696;51.426;6.934;2023-07-16T18:55:12;22.10;62.30
35027;DHT22;60696;51.426;6.934;2023-07-16T18:57:38;22.00;61.90
35027;DHT22;60696;51.426;6.934;2023-07-16T19:00:08;21.80;61.90
35027;DHT22;60696;51.426;6.934;2023-07-16T19:02:34;21.70;61.20
35027;DHT22;60696;51.426;6.934;2023-07-16T19:04:59;21.70;63.60
35027;DHT22;60696;51.426;6.934;2023-07-16T19:07:25;21.60;63.60
35027;DHT22;60696;51.426;6.934;2023-07-16T19:09:54;21.50;62.50
35027;DHT22;60696;51.426;6.934;2023-07-16T19:12:19;21.40;63.70
35027;DHT22;60696;51.426;6.934;2023-07-16T19:14:45;21.20;64.70
35027;DHT22;60696;51.426;6.934;2023-07-16T19:17:14;21.20;63.70
35027;DHT22;60696;51.426;6.934;2023-07-16T19:19:40;21.10;64.60
35027;DHT22;60696;51.426;6.934;2023-07-16T19:22:06;21.10;64.20
35027;DHT22;60696;51.426;6.934;2023-07-16T19:24:32;21.00;65.80
35027;DHT22;60696;51.426;6.934;2023-07-16T19:27:00;21.00;67.50
35027;DHT22;60696;51.426;6.934;2023-07-16T19:29:25;20.90;64.90
35027;DHT22;60696;51.426;6.934;2023-07-16T19:31:51;20.90;67.10